LTAH

Afyon Airport

Afyonkarahisar, Turkey
TAF LTAH 210740Z 2109/2118 VRB02KT 9999 -SHRA SCT035 TEMPO 2111/2115 33012KT -TSRA FEW025CB BKN030
Issued Valid From Valid To
Jun-21 @ 07:40 UTC
(3 hours ago)
Jun-21 @ 09:00 UTC
(an hour ago)
Jun-21 @ 18:00 UTC
(in 8 hours)
Jun-21 @ 09:00 to Jun-21 @ 18:00
TAF LTAH 210740Z 2109/2118 VRB02KT 9999 -SHRA SCT035
Wind Visibility Clouds Conditions
Variable at 2 knots 10,000+ meters
  • Scattered at 3,500' AGL
  • Light Rain
Temporary Jun-21 @ 11:00 to Jun-21 @ 15:00
TEMPO 2111/2115 33012KT -TSRA FEW025CB BKN030
Wind Clouds Conditions
330° at 12 knots
  • Few at 2,500' AGL
  • Broken at 3,000' AGL
  • Light Thunderstorm
  • Light Rain
TAF LTAH 210740Z 2109/2118 VRB02KT 9999 -SHRA SCT035 TEMPO 2111/2115 33012KT -TSRA FEW025CB BKN030
Issued Jun-21 @ 07:40 UTC
(3 hours ago)
Valid From Jun-21 @ 09:00 UTC
(an hour ago)
Valid To Jun-21 @ 18:00 UTC
(in 8 hours)
Jun-21 @ 09:00 - Jun-21 @ 18:00
Wind Visibility
Variable at 2 knots 10,000+ meters
Clouds
  • Scattered at 3,500' AGL
Conditions
  • Light Rain
Temporary Jun-21 @ 11:00 - Jun-21 @ 15:00
Wind
330° at 12 knots
Clouds
  • Few at 2,500' AGL
  • Broken at 3,000' AGL
Conditions
  • Light Thunderstorm
  • Light Rain